• Join FlightAware (Why Join?)
  • Login
  • US Flag 
11:21AM EDT


 

Airport Tracker/Info


-or-


 

Live Flight TrackerFlight Track Log ✈ N775NC ✈ 27-Oct-2013 ✈ KSTL - KDTW

Flight Track Log - Related Links

Times and Time Zones

All times are in EDT time to prevent confusion due to time zone crossing. See the N775NC flight status page for this flight to view local times or setup timezone preferences in your user account.

Time Position Orientation Groundspeed Altitude Reporting Facility
EDT Latitude Longitude Course Direction KTS MPH feet Rate Location/Type
07:33PM 38.8639 -90.4458 79° East 243 280 4,100  Level Kansas City Center
07:34PM 38.8761 -90.3550 80° East 265 305 6,600 2,400 Climbing Kansas City Center
07:35PM 39.0001 -89.9102 84° East  Level Estimated
07:35PM 38.8506 -90.2569 108° East 278 320 9,100  Level Kansas City Center
07:36PM 39.0627 -89.7947 74° East  Level Estimated
07:36PM 38.8317 -90.1494 103° East 298 343 10,700  Level Kansas City Center
07:37PM 39.1252 -89.6791 90° East  Level Estimated
07:37PM 38.8253 -89.9950 93° East 340 391 11,600  Level Kansas City Center
07:38PM 39.1832 -89.5712 79° East  Level Estimated
07:38PM 38.8022 -89.8517 102° East 399 459 13,600  Level Kansas City Center
07:39PM 38.7897 -89.7019 96° East 418 481 15,400 1,740 Climbing Kansas City Center
07:40PM 38.7975 -89.5447 86° East 420 483 17,300 1,620 Climbing Kansas City Center
07:41PM 38.8317 -89.3825 75° East 437 503 18,800 1,440 Climbing Kansas City Center
07:42PM 38.8464 -89.2244 83° East 445 512 20,300 1,440 Climbing Kansas City Center
07:43PM 38.8642 -89.0500 82° East 457 526 21,800 1,320 Climbing Kansas City Center
07:45PM 38.8767 -88.8892 84° East 463 533 23,100 1,080 Climbing Kansas City Center
07:46PM 38.8875 -88.7214 85° East 471 542 24,100 1,020 Climbing Kansas City Center
07:47PM 38.9197 -88.5369 77° East 480 552 25,300 1,080 Climbing Kansas City Center
07:48PM 38.9578 -88.3678 74° East 487 560 26,400 1,140 Climbing Kansas City Center
07:49PM 38.9975 -88.2022 73° East 484 557 27,700 1,200 Climbing Kansas City Center
07:49PM 39.0347 -88.0756 69° East 482 555 28,600 660 Climbing Indianapolis Center
07:50PM 39.0958 -87.9194 63° Northeast 484 557 29,000 180 Climbing Indianapolis Center
07:52PM 39.1281 -87.7564 76° East 476 548 29,000  Level Indianapolis Center
07:53PM 39.1572 -87.6044 76° East 447 514 29,000  Level Indianapolis Center
07:54PM 39.1803 -87.4522 79° East 436 502 29,000  Level Indianapolis Center
07:55PM 39.2056 -87.2994 78° East 438 504 29,000  Level Indianapolis Center
07:56PM 39.2358 -87.1167 78° East 438 504 29,000  Level Indianapolis Center
07:57PM 39.3011 -86.9925 56° Northeast 437 503 29,000  Level Indianapolis Center
07:58PM 39.3944 -86.8931 39° Northeast 436 502 29,000  Level Indianapolis Center
07:59PM 39.4883 -86.7803 43° Northeast 456 525 29,000  Level Indianapolis Center
08:00PM 39.5856 -86.6614 43° Northeast 475 547 29,000  Level Indianapolis Center
08:01PM 39.6903 -86.5500 39° Northeast 483 556 29,000  Level Indianapolis Center
08:02PM 39.7939 -86.4325 41° Northeast 485 558 29,000  Level Indianapolis Center
08:03PM 39.8972 -86.3150 41° Northeast 480 552 29,000  Level Indianapolis Center
08:04PM 39.9994 -86.2117 38° Northeast 465 535 29,000  Level Indianapolis Center
08:05PM 40.1150 -86.0786 41° Northeast 461 531 29,000  Level Indianapolis Center
08:06PM 40.1933 -85.9889 41° Northeast 462 532 29,000  Level Chicago Center
08:07PM 40.2950 -85.8856 38° Northeast 464 534 29,000 -480 Level Chicago Center
08:08PM 40.3919 -85.7750 41° Northeast 463 533 28,000 -1,200 Descending Chicago Center
08:09PM 40.5092 -85.6381 42° Northeast 470 541 26,500 -1,440 Descending Chicago Center
08:10PM 40.6181 -85.5575 29° Northeast 452 520 25,100 -1,260 Descending Chicago Center
08:11PM 40.7308 -85.4656 32° Northeast 447 514 23,900 -1,080 Descending Chicago Center
08:12PM 40.8250 -85.3506 43° Northeast 463 533 22,900 -1,080 Descending Chicago Center
08:13PM 40.9222 -85.2408 40° Northeast 464 534 21,700 -840 Descending Chicago Center
08:14PM 41.0256 -85.1483 34° Northeast 454 522 21,200 -360 Descending Chicago Center
08:15PM 41.1181 -85.0433 41° Northeast 444 511 21,000 -120 Descending Chicago Center
08:16PM 41.2242 -84.9056 44° Northeast 449 517 21,000  Level Chicago Center
08:17PM 41.3242 -84.8186 33° Northeast 435 501 21,100  Climbing Chicago Center
08:18PM 41.4106 -84.7322 37° Northeast 399 459 21,000 -60 Descending Chicago Center
08:19PM 41.4917 -84.6358 42° Northeast 394 453 21,000 -300 Level Chicago Center
08:20PM 41.5731 -84.5356 43° Northeast 399 459 20,400 -900 Descending Chicago Center
08:21PM 41.6275 -84.4714 41° Northeast 393 452 19,500 -1,680 Descending Cleveland Center
08:22PM 41.6750 -84.3903 52° Northeast 406 467 18,200 -2,520 Descending Cleveland Center
08:22PM 41.6886 -84.3494 66° East 400 460 17,200 -3,300 Descending Cleveland Center
08:23PM 41.7308 -84.2422 62° Northeast 419 482 14,800 -3,480 Descending Cleveland Center
08:23PM 41.7481 -84.1961 63° Northeast 437 503 13,700 -2,520 Descending Cleveland Center
08:24PM 41.7858 -84.1008 62° Northeast 429 494 12,200 -1,680 Descending Cleveland Center
08:24PM 41.8058 -84.0619 55° Northeast 415 478 12,000 -120 Descending Cleveland Center
08:25PM 41.8461 -83.9803 56° Northeast 394 453 12,100 60 Climbing Cleveland Center
08:25PM 41.8697 -83.9481 45° Northeast 381 438 12,100  Level Cleveland Center
08:26PM 41.9183 -83.8744 48° Northeast 387 445 12,100  Level Cleveland Center
08:26PM 41.9419 -83.8381 49° Northeast 392 451 12,100  Level Cleveland Center
08:27PM 42.0153 -83.7114 52° Northeast 404 465 12,100  Level Cleveland Center
08:28PM 42.0731 -83.6181 50° Northeast 403 464 12,100  Level Cleveland Center
08:28PM 42.0817 -83.5886 68° East 408 470 12,100  Level Cleveland Center
08:29PM 42.1050 -83.4736 75° East 370 426 12,100  Level Cleveland Center
08:29PM 42.1092 -83.4547 73° East 328 377 12,100 -300 Level Cleveland Center
08:30PM 42.1322 -83.3483 74° East 273 314 11,800 -660 Descending Cleveland Center
08:31PM 42.1511 -83.2672 73° East 275 316 10,900 -1,080 Descending Cleveland Center
08:31PM 42.1556 -83.2614 44° Northeast 264 304 10,800 -1,200 Descending Cleveland Center
08:32PM 42.2100 -83.2069 37° Northeast 234 269 9,700 -1,020 Descending Cleveland Center
08:32PM 42.2064 -83.2067 177° South 252 290 9,800 -1,080 Climbing Cleveland Center
08:33PM 42.2633 -83.1692 26° Northeast 213 245 8,600 -1,200 Descending Cleveland Center
08:33PM 42.2594 -83.1683 171° South 222 255 8,600 -600 Level Cleveland Center
08:34PM 42.3128 -83.1253 31° Northeast 214 246 8,000 -600 Descending Cleveland Center
08:34PM 42.3094 -83.1264 194° South 215 247 8,000 -600 Level Cleveland Center
08:35PM 42.3664 -83.0789 32° Northeast 211 243 7,400 -420 Descending Cleveland Center
08:35PM 42.3581 -83.0817 194° South 212 244 7,600 -1,200 Climbing Cleveland Center
08:36PM 42.3922 -83.1250 317° Northwest 152 175 6,200 -1,500 Descending Cleveland Center
08:36PM 42.3925 -83.1258 294° West 169 194 6,100 -960 Descending Cleveland Center
08:37PM 42.3783 -83.1792 250° West 153 176 5,200 -840 Descending Cleveland Center
08:38PM 42.3489 -83.2264 230° Southwest 147 169 4,400 -900 Descending Cleveland Center
08:39PM 42.3169 -83.2614 219° Southwest 143 165 3,400 -900 Descending Cleveland Center
08:39PM 42.3200 -83.2575 43° Northeast 147 169 3,500 -1,320 Climbing Cleveland Center
08:40PM 42.2858 -83.2853 211° Southwest 125 144 2,100 -1,200 Descending Cleveland Center
08:40PM 42.2883 -83.2803 56° Northeast 134 154 2,300 -600 Climbing Cleveland Center
08:41PM 42.2592 -83.3042 211° Southwest 121 139 1,600 -720 Descending Cleveland Center
08:41PM 42.2586 -83.3039 160° South 127 146 1,600 -600 Level Cleveland Center
08:42PM 42.2303 -83.3253 209° Southwest 117 135 1,000 -600 Descending Cleveland Center
08:42PM 42.2303 -83.3250 90° East 121 139 1,000 -360 Level Cleveland Center
08:43PM 42.1958 -83.3503 209° Southwest 121 139 600 -420 Descending Cleveland Center